sensor_id;sensor_type;location;lat;lon;timestamp;P1;durP1;ratioP1;P2;durP2;ratioP2
13335;SDS011;6737;51.480;11.962;2023-08-08T00:01:20;3.43;;;2.20;;
13335;SDS011;6737;51.480;11.962;2023-08-08T00:03:46;4.87;;;2.10;;
13335;SDS011;6737;51.480;11.962;2023-08-08T00:06:12;5.73;;;2.80;;
13335;SDS011;6737;51.480;11.962;2023-08-08T00:08:38;5.43;;;2.40;;
13335;SDS011;6737;51.480;11.962;2023-08-08T00:11:04;6.40;;;2.30;;
13335;SDS011;6737;51.480;11.962;2023-08-08T00:13:30;4.70;;;2.33;;
13335;SDS011;6737;51.480;11.962;2023-08-08T00:15:55;3.90;;;2.20;;
13335;SDS011;6737;51.480;11.962;2023-08-08T00:18:21;6.40;;;2.43;;
13335;SDS011;6737;51.480;11.962;2023-08-08T00:20:47;4.00;;;1.90;;
13335;SDS011;6737;51.480;11.962;2023-08-08T00:23:13;7.07;;;2.33;;
13335;SDS011;6737;51.480;11.962;2023-08-08T00:25:39;6.43;;;2.17;;
13335;SDS011;6737;51.480;11.962;2023-08-08T00:28:04;6.23;;;2.10;;
13335;SDS011;6737;51.480;11.962;2023-08-08T00:30:30;3.50;;;2.03;;
13335;SDS011;6737;51.480;11.962;2023-08-08T00:32:56;4.10;;;2.40;;
13335;SDS011;6737;51.480;11.962;2023-08-08T00:35:22;5.13;;;2.30;;
13335;SDS011;6737;51.480;11.962;2023-08-08T00:37:48;4.53;;;2.10;;
13335;SDS011;6737;51.480;11.962;2023-08-08T00:40:14;3.53;;;2.10;;
13335;SDS011;6737;51.480;11.962;2023-08-08T00:42:40;5.33;;;2.40;;
13335;SDS011;6737;51.480;11.962;2023-08-08T00:45:06;5.80;;;2.13;;
13335;SDS011;6737;51.480;11.962;2023-08-08T00:47:32;2.93;;;2.00;;
13335;SDS011;6737;51.480;11.962;2023-08-08T00:49:59;5.70;;;2.53;;
13335;SDS011;6737;51.480;11.962;2023-08-08T00:52:27;3.77;;;2.37;;
13335;SDS011;6737;51.480;11.962;2023-08-08T00:54:53;4.90;;;2.40;;
13335;SDS011;6737;51.480;11.962;2023-08-08T00:57:19;3.30;;;2.23;;
13335;SDS011;6737;51.480;11.962;2023-08-08T00:59:46;5.07;;;2.20;;
13335;SDS011;6737;51.480;11.962;2023-08-08T01:02:12;4.80;;;2.27;;
13335;SDS011;6737;51.480;11.962;2023-08-08T01:04:38;3.57;;;2.23;;
13335;SDS011;6737;51.480;11.962;2023-08-08T01:07:09;4.10;;;2.20;;
13335;SDS011;6737;51.480;11.962;2023-08-08T01:12:23;4.93;;;2.40;;
13335;SDS011;6737;51.480;11.962;2023-08-08T01:14:51;5.77;;;2.40;;
13335;SDS011;6737;51.480;11.962;2023-08-08T01:17:19;6.73;;;2.27;;
13335;SDS011;6737;51.480;11.962;2023-08-08T01:19:47;5.00;;;2.07;;
13335;SDS011;6737;51.480;11.962;2023-08-08T01:22:20;4.93;;;2.33;;
13335;SDS011;6737;51.480;11.962;2023-08-08T01:24:52;4.47;;;2.20;;
13335;SDS011;6737;51.480;11.962;2023-08-08T01:27:19;6.17;;;2.30;;
13335;SDS011;6737;51.480;11.962;2023-08-08T01:29:45;2.90;;;2.10;;
13335;SDS011;6737;51.480;11.962;2023-08-08T01:32:11;3.80;;;2.10;;
13335;SDS011;6737;51.480;11.962;2023-08-08T01:34:36;4.47;;;2.20;;
13335;SDS011;6737;51.480;11.962;2023-08-08T01:37:06;5.07;;;2.33;;
13335;SDS011;6737;51.480;11.962;2023-08-08T01:39:38;6.93;;;2.30;;
13335;SDS011;6737;51.480;11.962;2023-08-08T01:42:05;5.37;;;2.30;;
13335;SDS011;6737;51.480;11.962;2023-08-08T01:44:31;6.17;;;2.13;;
13335;SDS011;6737;51.480;11.962;2023-08-08T01:47:00;5.13;;;2.40;;
13335;SDS011;6737;51.480;11.962;2023-08-08T01:49:26;4.00;;;2.30;;
13335;SDS011;6737;51.480;11.962;2023-08-08T01:51:52;4.00;;;2.00;;
13335;SDS011;6737;51.480;11.962;2023-08-08T01:54:18;4.53;;;2.20;;
13335;SDS011;6737;51.480;11.962;2023-08-08T01:56:45;5.70;;;2.33;;
13335;SDS011;6737;51.480;11.962;2023-08-08T01:59:10;4.30;;;2.17;;
13335;SDS011;6737;51.480;11.962;2023-08-08T02:01:36;6.20;;;2.33;;
13335;SDS011;6737;51.480;11.962;2023-08-08T02:04:02;3.67;;;2.23;;
13335;SDS011;6737;51.480;11.962;2023-08-08T02:06:28;5.03;;;2.10;;
13335;SDS011;6737;51.480;11.962;2023-08-08T02:08:55;3.43;;;2.40;;
13335;SDS011;6737;51.480;11.962;2023-08-08T02:11:21;4.77;;;2.40;;
13335;SDS011;6737;51.480;11.962;2023-08-08T02:13:47;4.37;;;2.40;;
13335;SDS011;6737;51.480;11.962;2023-08-08T02:16:12;4.90;;;2.30;;
13335;SDS011;6737;51.480;11.962;2023-08-08T02:18:38;4.63;;;2.10;;
13335;SDS011;6737;51.480;11.962;2023-08-08T02:21:06;4.77;;;2.43;;
13335;SDS011;6737;51.480;11.962;2023-08-08T02:23:33;7.00;;;2.90;;
13335;SDS011;6737;51.480;11.962;2023-08-08T02:25:59;5.50;;;2.30;;
13335;SDS011;6737;51.480;11.962;2023-08-08T02:28:25;5.70;;;2.30;;
13335;SDS011;6737;51.480;11.962;2023-08-08T02:30:50;4.60;;;2.20;;
13335;SDS011;6737;51.480;11.962;2023-08-08T02:33:16;4.37;;;2.30;;
13335;SDS011;6737;51.480;11.962;2023-08-08T02:35:42;4.93;;;2.77;;
13335;SDS011;6737;51.480;11.962;2023-08-08T02:38:08;3.80;;;2.30;;
13335;SDS011;6737;51.480;11.962;2023-08-08T02:40:33;4.73;;;2.30;;
13335;SDS011;6737;51.480;11.962;2023-08-08T02:42:59;3.13;;;2.23;;
13335;SDS011;6737;51.480;11.962;2023-08-08T02:45:25;3.83;;;2.23;;
13335;SDS011;6737;51.480;11.962;2023-08-08T02:47:51;5.30;;;2.33;;
13335;SDS011;6737;51.480;11.962;2023-08-08T02:50:17;4.83;;;2.20;;
13335;SDS011;6737;51.480;11.962;2023-08-08T02:52:42;2.73;;;1.97;;
13335;SDS011;6737;51.480;11.962;2023-08-08T02:55:08;3.13;;;2.23;;
13335;SDS011;6737;51.480;11.962;2023-08-08T02:57:34;3.50;;;2.20;;
13335;SDS011;6737;51.480;11.962;2023-08-08T03:00:00;7.50;;;2.20;;
13335;SDS011;6737;51.480;11.962;2023-08-08T03:02:26;4.60;;;2.20;;
13335;SDS011;6737;51.480;11.962;2023-08-08T03:04:51;3.13;;;2.03;;
13335;SDS011;6737;51.480;11.962;2023-08-08T03:07:17;5.10;;;2.50;;
13335;SDS011;6737;51.480;11.962;2023-08-08T03:09:43;3.70;;;2.23;;
13335;SDS011;6737;51.480;11.962;2023-08-08T03:12:08;4.90;;;2.17;;
13335;SDS011;6737;51.480;11.962;2023-08-08T03:14:34;4.20;;;2.50;;
13335;SDS011;6737;51.480;11.962;2023-08-08T03:17:00;5.40;;;2.07;;
13335;SDS011;6737;51.480;11.962;2023-08-08T03:19:26;3.90;;;2.43;;
13335;SDS011;6737;51.480;11.962;2023-08-08T03:21:51;6.10;;;2.30;;
13335;SDS011;6737;51.480;11.962;2023-08-08T03:24:17;3.17;;;2.40;;
13335;SDS011;6737;51.480;11.962;2023-08-08T03:26:43;4.90;;;2.20;;
13335;SDS011;6737;51.480;11.962;2023-08-08T03:29:09;5.40;;;2.03;;
13335;SDS011;6737;51.480;11.962;2023-08-08T03:31:36;5.03;;;2.10;;
13335;SDS011;6737;51.480;11.962;2023-08-08T03:34:02;4.37;;;2.10;;
13335;SDS011;6737;51.480;11.962;2023-08-08T03:36:28;5.47;;;2.20;;
13335;SDS011;6737;51.480;11.962;2023-08-08T03:38:53;3.30;;;1.97;;
13335;SDS011;6737;51.480;11.962;2023-08-08T03:41:19;3.83;;;2.10;;
13335;SDS011;6737;51.480;11.962;2023-08-08T03:43:45;4.20;;;2.20;;
13335;SDS011;6737;51.480;11.962;2023-08-08T03:46:11;5.07;;;2.53;;
13335;SDS011;6737;51.480;11.962;2023-08-08T03:48:37;5.47;;;2.30;;
13335;SDS011;6737;51.480;11.962;2023-08-08T03:51:03;3.93;;;2.40;;
13335;SDS011;6737;51.480;11.962;2023-08-08T03:53:29;3.97;;;2.40;;
13335;SDS011;6737;51.480;11.962;2023-08-08T03:55:55;6.77;;;2.50;;
13335;SDS011;6737;51.480;11.962;2023-08-08T03:58:21;4.50;;;2.40;;
13335;SDS011;6737;51.480;11.962;2023-08-08T04:00:47;6.10;;;2.50;;
13335;SDS011;6737;51.480;11.962;2023-08-08T04:03:13;3.30;;;2.30;;
13335;SDS011;6737;51.480;11.962;2023-08-08T04:05:40;3.80;;;2.40;;
13335;SDS011;6737;51.480;11.962;2023-08-08T04:08:07;4.27;;;2.40;;
13335;SDS011;6737;51.480;11.962;2023-08-08T04:10:33;3.53;;;2.30;;
13335;SDS011;6737;51.480;11.962;2023-08-08T04:12:59;3.90;;;2.50;;
13335;SDS011;6737;51.480;11.962;2023-08-08T04:15:24;3.90;;;2.57;;
13335;SDS011;6737;51.480;11.962;2023-08-08T04:17:50;5.33;;;2.30;;
13335;SDS011;6737;51.480;11.962;2023-08-08T04:20:16;4.03;;;2.20;;
13335;SDS011;6737;51.480;11.962;2023-08-08T04:22:41;4.10;;;2.20;;
13335;SDS011;6737;51.480;11.962;2023-08-08T04:25:07;4.03;;;2.07;;
13335;SDS011;6737;51.480;11.962;2023-08-08T04:27:33;8.20;;;2.50;;
13335;SDS011;6737;51.480;11.962;2023-08-08T04:29:59;3.80;;;2.10;;
13335;SDS011;6737;51.480;11.962;2023-08-08T04:32:25;5.67;;;2.40;;
13335;SDS011;6737;51.480;11.962;2023-08-08T04:34:50;3.50;;;2.20;;
13335;SDS011;6737;51.480;11.962;2023-08-08T04:37:16;5.70;;;2.10;;
13335;SDS011;6737;51.480;11.962;2023-08-08T04:39:42;4.10;;;2.03;;
13335;SDS011;6737;51.480;11.962;2023-08-08T04:42:08;2.73;;;2.00;;
13335;SDS011;6737;51.480;11.962;2023-08-08T04:44:33;4.20;;;2.40;;
13335;SDS011;6737;51.480;11.962;2023-08-08T04:46:59;4.07;;;1.90;;
13335;SDS011;6737;51.480;11.962;2023-08-08T04:49:25;5.47;;;2.50;;
13335;SDS011;6737;51.480;11.962;2023-08-08T04:51:50;3.60;;;1.93;;
13335;SDS011;6737;51.480;11.962;2023-08-08T04:54:16;3.70;;;2.20;;
13335;SDS011;6737;51.480;11.962;2023-08-08T04:56:42;4.13;;;2.30;;
13335;SDS011;6737;51.480;11.962;2023-08-08T04:59:08;4.07;;;2.30;;
13335;SDS011;6737;51.480;11.962;2023-08-08T05:01:33;3.70;;;2.27;;
13335;SDS011;6737;51.480;11.962;2023-08-08T05:03:59;4.37;;;2.30;;
13335;SDS011;6737;51.480;11.962;2023-08-08T05:06:25;3.00;;;2.20;;
13335;SDS011;6737;51.480;11.962;2023-08-08T05:08:51;3.97;;;2.10;;
13335;SDS011;6737;51.480;11.962;2023-08-08T05:11:17;4.57;;;2.13;;
13335;SDS011;6737;51.480;11.962;2023-08-08T05:13:43;3.30;;;2.20;;
13335;SDS011;6737;51.480;11.962;2023-08-08T05:16:09;3.30;;;2.20;;
13335;SDS011;6737;51.480;11.962;2023-08-08T05:18:35;6.50;;;2.13;;
13335;SDS011;6737;51.480;11.962;2023-08-08T05:21:00;6.60;;;2.00;;
13335;SDS011;6737;51.480;11.962;2023-08-08T05:23:26;6.03;;;2.30;;
13335;SDS011;6737;51.480;11.962;2023-08-08T05:25:52;3.40;;;1.80;;
13335;SDS011;6737;51.480;11.962;2023-08-08T05:28:17;5.43;;;2.30;;
13335;SDS011;6737;51.480;11.962;2023-08-08T05:30:43;2.87;;;2.00;;
13335;SDS011;6737;51.480;11.962;2023-08-08T05:33:09;4.60;;;1.93;;
13335;SDS011;6737;51.480;11.962;2023-08-08T05:35:35;2.83;;;2.00;;
13335;SDS011;6737;51.480;11.962;2023-08-08T05:38:01;3.30;;;1.90;;
13335;SDS011;6737;51.480;11.962;2023-08-08T05:40:26;4.40;;;1.90;;
13335;SDS011;6737;51.480;11.962;2023-08-08T05:42:52;3.17;;;2.10;;
13335;SDS011;6737;51.480;11.962;2023-08-08T05:45:18;4.87;;;1.93;;
13335;SDS011;6737;51.480;11.962;2023-08-08T05:47:43;3.10;;;2.00;;
13335;SDS011;6737;51.480;11.962;2023-08-08T05:50:09;3.33;;;1.90;;
13335;SDS011;6737;51.480;11.962;2023-08-08T05:52:35;4.27;;;2.00;;
13335;SDS011;6737;51.480;11.962;2023-08-08T05:55:01;3.10;;;1.80;;
13335;SDS011;6737;51.480;11.962;2023-08-08T05:57:27;3.27;;;1.83;;
13335;SDS011;6737;51.480;11.962;2023-08-08T05:59:52;4.90;;;2.10;;
13335;SDS011;6737;51.480;11.962;2023-08-08T06:02:18;2.70;;;1.73;;
13335;SDS011;6737;51.480;11.962;2023-08-08T06:04:44;4.07;;;1.80;;
13335;SDS011;6737;51.480;11.962;2023-08-08T06:07:10;2.70;;;1.97;;
13335;SDS011;6737;51.480;11.962;2023-08-08T06:09:36;4.10;;;1.97;;
13335;SDS011;6737;51.480;11.962;2023-08-08T06:12:05;2.03;;;1.60;;
13335;SDS011;6737;51.480;11.962;2023-08-08T06:14:31;1.80;;;1.60;;
13335;SDS011;6737;51.480;11.962;2023-08-08T06:16:57;3.17;;;1.50;;
13335;SDS011;6737;51.480;11.962;2023-08-08T06:19:23;3.43;;;1.83;;
13335;SDS011;6737;51.480;11.962;2023-08-08T06:21:48;3.23;;;1.90;;
13335;SDS011;6737;51.480;11.962;2023-08-08T06:24:15;2.90;;;1.60;;
13335;SDS011;6737;51.480;11.962;2023-08-08T06:26:41;3.47;;;1.80;;
13335;SDS011;6737;51.480;11.962;2023-08-08T06:29:06;4.80;;;1.67;;
13335;SDS011;6737;51.480;11.962;2023-08-08T06:31:32;2.60;;;1.90;;
13335;SDS011;6737;51.480;11.962;2023-08-08T06:33:58;2.97;;;1.90;;
13335;SDS011;6737;51.480;11.962;2023-08-08T06:36:24;4.13;;;1.50;;
13335;SDS011;6737;51.480;11.962;2023-08-08T06:38:50;2.70;;;1.60;;
13335;SDS011;6737;51.480;11.962;2023-08-08T06:41:15;2.73;;;1.60;;
13335;SDS011;6737;51.480;11.962;2023-08-08T06:43:41;3.97;;;1.70;;
13335;SDS011;6737;51.480;11.962;2023-08-08T06:46:07;2.97;;;1.70;;
13335;SDS011;6737;51.480;11.962;2023-08-08T06:48:33;3.83;;;1.73;;
13335;SDS011;6737;51.480;11.962;2023-08-08T06:50:59;2.30;;;1.57;;
13335;SDS011;6737;51.480;11.962;2023-08-08T06:53:25;2.60;;;1.50;;
13335;SDS011;6737;51.480;11.962;2023-08-08T06:55:51;4.27;;;1.57;;
13335;SDS011;6737;51.480;11.962;2023-08-08T06:58:17;2.17;;;1.40;;
13335;SDS011;6737;51.480;11.962;2023-08-08T07:00:43;1.80;;;1.47;;
13335;SDS011;6737;51.480;11.962;2023-08-08T07:03:08;2.20;;;1.57;;
13335;SDS011;6737;51.480;11.962;2023-08-08T07:05:34;2.03;;;1.50;;
13335;SDS011;6737;51.480;11.962;2023-08-08T07:08:00;4.23;;;1.40;;
13335;SDS011;6737;51.480;11.962;2023-08-08T07:10:27;3.27;;;1.20;;
13335;SDS011;6737;51.480;11.962;2023-08-08T07:12:53;1.83;;;1.40;;
13335;SDS011;6737;51.480;11.962;2023-08-08T07:15:19;3.20;;;1.40;;
13335;SDS011;6737;51.480;11.962;2023-08-08T07:17:45;1.50;;;1.37;;
13335;SDS011;6737;51.480;11.962;2023-08-08T07:20:10;3.13;;;1.37;;
13335;SDS011;6737;51.480;11.962;2023-08-08T07:22:38;1.80;;;1.50;;
13335;SDS011;6737;51.480;11.962;2023-08-08T07:25:04;2.33;;;1.63;;
13335;SDS011;6737;51.480;11.962;2023-08-08T07:27:31;4.37;;;2.03;;
13335;SDS011;6737;51.480;11.962;2023-08-08T07:29:57;2.27;;;1.77;;
13335;SDS011;6737;51.480;11.962;2023-08-08T07:32:22;3.47;;;1.80;;
13335;SDS011;6737;51.480;11.962;2023-08-08T07:34:48;2.40;;;1.57;;
13335;SDS011;6737;51.480;11.962;2023-08-08T07:37:14;2.50;;;1.63;;
13335;SDS011;6737;51.480;11.962;2023-08-08T07:39:40;3.03;;;1.90;;
13335;SDS011;6737;51.480;11.962;2023-08-08T07:42:06;3.60;;;1.80;;
13335;SDS011;6737;51.480;11.962;2023-08-08T07:44:31;2.97;;;1.70;;
13335;SDS011;6737;51.480;11.962;2023-08-08T07:46:59;2.90;;;1.87;;
13335;SDS011;6737;51.480;11.962;2023-08-08T07:49:25;2.43;;;1.80;;
13335;SDS011;6737;51.480;11.962;2023-08-08T07:51:51;3.37;;;1.70;;
13335;SDS011;6737;51.480;11.962;2023-08-08T07:54:17;4.67;;;2.10;;
13335;SDS011;6737;51.480;11.962;2023-08-08T07:56:42;2.23;;;1.70;;
13335;SDS011;6737;51.480;11.962;2023-08-08T07:59:08;2.73;;;1.60;;
13335;SDS011;6737;51.480;11.962;2023-08-08T08:01:35;2.77;;;1.80;;
13335;SDS011;6737;51.480;11.962;2023-08-08T08:04:00;3.93;;;1.80;;
13335;SDS011;6737;51.480;11.962;2023-08-08T08:06:27;2.87;;;1.90;;
13335;SDS011;6737;51.480;11.962;2023-08-08T08:08:53;2.37;;;1.50;;
13335;SDS011;6737;51.480;11.962;2023-08-08T08:11:19;2.97;;;1.70;;
13335;SDS011;6737;51.480;11.962;2023-08-08T08:13:45;5.07;;;1.77;;
13335;SDS011;6737;51.480;11.962;2023-08-08T08:16:11;2.23;;;1.63;;
13335;SDS011;6737;51.480;11.962;2023-08-08T08:18:36;2.63;;;1.63;;
13335;SDS011;6737;51.480;11.962;2023-08-08T08:21:02;3.03;;;1.80;;
13335;SDS011;6737;51.480;11.962;2023-08-08T08:23:28;3.83;;;1.67;;
13335;SDS011;6737;51.480;11.962;2023-08-08T08:25:55;3.50;;;1.80;;
13335;SDS011;6737;51.480;11.962;2023-08-08T08:28:21;2.67;;;1.67;;
13335;SDS011;6737;51.480;11.962;2023-08-08T08:30:47;3.17;;;1.60;;
13335;SDS011;6737;51.480;11.962;2023-08-08T08:33:13;2.30;;;1.77;;
13335;SDS011;6737;51.480;11.962;2023-08-08T08:35:39;2.87;;;1.70;;
13335;SDS011;6737;51.480;11.962;2023-08-08T08:38:04;2.83;;;1.80;;
13335;SDS011;6737;51.480;11.962;2023-08-08T08:40:35;2.47;;;1.70;;
13335;SDS011;6737;51.480;11.962;2023-08-08T08:43:03;2.50;;;1.77;;
13335;SDS011;6737;51.480;11.962;2023-08-08T08:45:30;3.13;;;1.83;;
13335;SDS011;6737;51.480;11.962;2023-08-08T08:47:57;2.90;;;1.93;;
13335;SDS011;6737;51.480;11.962;2023-08-08T08:50:24;3.03;;;1.77;;
13335;SDS011;6737;51.480;11.962;2023-08-08T08:52:53;3.20;;;1.70;;
13335;SDS011;6737;51.480;11.962;2023-08-08T08:55:21;3.13;;;1.77;;
13335;SDS011;6737;51.480;11.962;2023-08-08T08:57:48;3.53;;;2.17;;
13335;SDS011;6737;51.480;11.962;2023-08-08T09:00:15;3.20;;;1.60;;
13335;SDS011;6737;51.480;11.962;2023-08-08T09:02:41;2.63;;;1.87;;
13335;SDS011;6737;51.480;11.962;2023-08-08T09:05:08;3.07;;;2.00;;
13335;SDS011;6737;51.480;11.962;2023-08-08T09:07:35;4.70;;;2.10;;
13335;SDS011;6737;51.480;11.962;2023-08-08T09:10:02;2.60;;;1.90;;
13335;SDS011;6737;51.480;11.962;2023-08-08T09:12:29;2.83;;;1.70;;
13335;SDS011;6737;51.480;11.962;2023-08-08T09:14:57;2.33;;;1.90;;
13335;SDS011;6737;51.480;11.962;2023-08-08T09:17:26;2.97;;;1.90;;
13335;SDS011;6737;51.480;11.962;2023-08-08T09:19:53;3.67;;;1.90;;
13335;SDS011;6737;51.480;11.962;2023-08-08T09:22:20;3.37;;;1.90;;
13335;SDS011;6737;51.480;11.962;2023-08-08T09:24:46;2.33;;;1.60;;
13335;SDS011;6737;51.480;11.962;2023-08-08T09:27:12;4.33;;;1.90;;
13335;SDS011;6737;51.480;11.962;2023-08-08T09:29:39;3.97;;;1.90;;
13335;SDS011;6737;51.480;11.962;2023-08-08T09:32:06;2.30;;;1.70;;
13335;SDS011;6737;51.480;11.962;2023-08-08T09:34:33;1.87;;;1.70;;
13335;SDS011;6737;51.480;11.962;2023-08-08T09:36:59;3.50;;;1.80;;
13335;SDS011;6737;51.480;11.962;2023-08-08T09:39:26;3.10;;;1.63;;
13335;SDS011;6737;51.480;11.962;2023-08-08T09:41:53;3.15;;;2.00;;
13335;SDS011;6737;51.480;11.962;2023-08-08T09:44:24;4.38;;;2.05;;
13335;SDS011;6737;51.480;11.962;2023-08-08T09:46:55;4.43;;;1.92;;
13335;SDS011;6737;51.480;11.962;2023-08-08T09:49:21;2.17;;;1.50;;
13335;SDS011;6737;51.480;11.962;2023-08-08T09:51:47;2.97;;;1.75;;
13335;SDS011;6737;51.480;11.962;2023-08-08T09:54:14;3.35;;;1.90;;
13335;SDS011;6737;51.480;11.962;2023-08-08T09:56:42;2.78;;;1.70;;
13335;SDS011;6737;51.480;11.962;2023-08-08T09:59:08;2.60;;;1.50;;
13335;SDS011;6737;51.480;11.962;2023-08-08T10:01:36;2.22;;;1.80;;
13335;SDS011;6737;51.480;11.962;2023-08-08T10:04:04;2.63;;;1.80;;
13335;SDS011;6737;51.480;11.962;2023-08-08T10:06:32;2.00;;;1.80;;
13335;SDS011;6737;51.480;11.962;2023-08-08T10:08:58;2.75;;;1.83;;
13335;SDS011;6737;51.480;11.962;2023-08-08T10:11:25;3.40;;;1.80;;
13335;SDS011;6737;51.480;11.962;2023-08-08T10:13:52;2.60;;;1.80;;
13335;SDS011;6737;51.480;11.962;2023-08-08T10:16:19;3.35;;;1.90;;
13335;SDS011;6737;51.480;11.962;2023-08-08T10:18:58;2.17;;;1.80;;
13335;SDS011;6737;51.480;11.962;2023-08-08T10:21:26;3.38;;;1.80;;
13335;SDS011;6737;51.480;11.962;2023-08-08T10:24:00;3.22;;;1.80;;
13335;SDS011;6737;51.480;11.962;2023-08-08T10:26:30;4.18;;;1.90;;
13335;SDS011;6737;51.480;11.962;2023-08-08T10:28:57;3.22;;;1.77;;
13335;SDS011;6737;51.480;11.962;2023-08-08T10:31:25;4.00;;;1.80;;
13335;SDS011;6737;51.480;11.962;2023-08-08T10:34:00;3.35;;;1.83;;
13335;SDS011;6737;51.480;11.962;2023-08-08T10:36:42;4.32;;;1.73;;
13335;SDS011;6737;51.480;11.962;2023-08-08T10:39:17;3.67;;;1.75;;
13335;SDS011;6737;51.480;11.962;2023-08-08T10:41:45;3.47;;;1.70;;
13335;SDS011;6737;51.480;11.962;2023-08-08T10:44:20;3.47;;;1.80;;
13335;SDS011;6737;51.480;11.962;2023-08-08T10:46:50;4.97;;;2.10;;
13335;SDS011;6737;51.480;11.962;2023-08-08T10:49:18;3.05;;;1.77;;
13335;SDS011;6737;51.480;11.962;2023-08-08T10:51:45;3.17;;;2.00;;
13335;SDS011;6737;51.480;11.962;2023-08-08T10:54:13;3.25;;;1.90;;
13335;SDS011;6737;51.480;11.962;2023-08-08T10:56:47;3.17;;;1.80;;
13335;SDS011;6737;51.480;11.962;2023-08-08T10:59:35;4.72;;;2.13;;
13335;SDS011;6737;51.480;11.962;2023-08-08T11:02:03;4.35;;;2.25;;
13335;SDS011;6737;51.480;11.962;2023-08-08T11:04:29;4.63;;;1.60;;
13335;SDS011;6737;51.480;11.962;2023-08-08T11:06:57;5.45;;;1.90;;
13335;SDS011;6737;51.480;11.962;2023-08-08T11:09:24;4.43;;;1.95;;
13335;SDS011;6737;51.480;11.962;2023-08-08T11:11:51;2.30;;;1.80;;
13335;SDS011;6737;51.480;11.962;2023-08-08T11:14:18;5.30;;;1.65;;
13335;SDS011;6737;51.480;11.962;2023-08-08T11:16:46;2.80;;;1.63;;
13335;SDS011;6737;51.480;11.962;2023-08-08T11:19:13;1.80;;;1.52;;
13335;SDS011;6737;51.480;11.962;2023-08-08T11:21:42;2.08;;;1.67;;
13335;SDS011;6737;51.480;11.962;2023-08-08T11:24:09;3.85;;;1.98;;
13335;SDS011;6737;51.480;11.962;2023-08-08T11:26:37;5.93;;;2.08;;
13335;SDS011;6737;51.480;11.962;2023-08-08T11:29:04;3.13;;;2.15;;
13335;SDS011;6737;51.480;11.962;2023-08-08T11:31:31;3.42;;;2.00;;
13335;SDS011;6737;51.480;11.962;2023-08-08T11:33:59;3.55;;;2.05;;
13335;SDS011;6737;51.480;11.962;2023-08-08T11:36:34;3.67;;;2.00;;
13335;SDS011;6737;51.480;11.962;2023-08-08T11:39:01;3.55;;;2.15;;
13335;SDS011;6737;51.480;11.962;2023-08-08T11:41:33;2.35;;;2.08;;
13335;SDS011;6737;51.480;11.962;2023-08-08T11:44:01;3.42;;;2.10;;
13335;SDS011;6737;51.480;11.962;2023-08-08T11:46:32;4.05;;;2.05;;
13335;SDS011;6737;51.480;11.962;2023-08-08T11:49:04;3.40;;;2.05;;
13335;SDS011;6737;51.480;11.962;2023-08-08T11:51:32;3.53;;;2.30;;
13335;SDS011;6737;51.480;11.962;2023-08-08T11:54:00;4.70;;;2.67;;
13335;SDS011;6737;51.480;11.962;2023-08-08T11:56:27;4.80;;;2.70;;
13335;SDS011;6737;51.480;11.962;2023-08-08T11:58:54;5.47;;;2.53;;
13335;SDS011;6737;51.480;11.962;2023-08-08T12:01:22;5.47;;;2.47;;
13335;SDS011;6737;51.480;11.962;2023-08-08T12:03:48;4.45;;;2.60;;
13335;SDS011;6737;51.480;11.962;2023-08-08T12:06:17;3.83;;;2.30;;
13335;SDS011;6737;51.480;11.962;2023-08-08T12:08:44;5.93;;;2.60;;
13335;SDS011;6737;51.480;11.962;2023-08-08T12:11:11;5.25;;;2.72;;
13335;SDS011;6737;51.480;11.962;2023-08-08T12:13:38;2.75;;;2.42;;
13335;SDS011;6737;51.480;11.962;2023-08-08T12:16:09;4.13;;;2.40;;
13335;SDS011;6737;51.480;11.962;2023-08-08T12:18:36;4.72;;;2.60;;
13335;SDS011;6737;51.480;11.962;2023-08-08T12:21:06;5.05;;;2.40;;
13335;SDS011;6737;51.480;11.962;2023-08-08T12:23:34;4.05;;;2.00;;
13335;SDS011;6737;51.480;11.962;2023-08-08T12:26:02;3.45;;;2.30;;
13335;SDS011;6737;51.480;11.962;2023-08-08T12:28:30;3.63;;;2.10;;
13335;SDS011;6737;51.480;11.962;2023-08-08T12:30:56;2.55;;;2.20;;
13335;SDS011;6737;51.480;11.962;2023-08-08T12:33:22;2.97;;;1.95;;
13335;SDS011;6737;51.480;11.962;2023-08-08T12:35:48;4.00;;;2.72;;
13335;SDS011;6737;51.480;11.962;2023-08-08T12:38:14;6.45;;;2.30;;
13335;SDS011;6737;51.480;11.962;2023-08-08T12:40:40;3.45;;;2.10;;
13335;SDS011;6737;51.480;11.962;2023-08-08T12:43:07;3.40;;;2.22;;
13335;SDS011;6737;51.480;11.962;2023-08-08T12:45:34;4.18;;;2.50;;
13335;SDS011;6737;51.480;11.962;2023-08-08T12:48:00;7.45;;;2.60;;
13335;SDS011;6737;51.480;11.962;2023-08-08T12:50:26;3.42;;;2.30;;
13335;SDS011;6737;51.480;11.962;2023-08-08T12:52:52;2.70;;;2.00;;
13335;SDS011;6737;51.480;11.962;2023-08-08T12:55:18;3.88;;;2.20;;
13335;SDS011;6737;51.480;11.962;2023-08-08T12:57:44;6.68;;;2.53;;
13335;SDS011;6737;51.480;11.962;2023-08-08T13:00:10;3.47;;;2.20;;
13335;SDS011;6737;51.480;11.962;2023-08-08T13:02:38;5.07;;;2.30;;
13335;SDS011;6737;51.480;11.962;2023-08-08T13:05:04;3.30;;;2.47;;
13335;SDS011;6737;51.480;11.962;2023-08-08T13:07:32;3.53;;;2.20;;
13335;SDS011;6737;51.480;11.962;2023-08-08T13:09:57;4.05;;;2.42;;
13335;SDS011;6737;51.480;11.962;2023-08-08T13:12:23;3.95;;;2.50;;
13335;SDS011;6737;51.480;11.962;2023-08-08T13:14:49;5.63;;;2.47;;
13335;SDS011;6737;51.480;11.962;2023-08-08T13:17:15;5.38;;;2.75;;
13335;SDS011;6737;51.480;11.962;2023-08-08T13:19:41;5.50;;;2.70;;
13335;SDS011;6737;51.480;11.962;2023-08-08T13:22:06;4.25;;;2.33;;
13335;SDS011;6737;51.480;11.962;2023-08-08T13:24:32;5.20;;;2.60;;
13335;SDS011;6737;51.480;11.962;2023-08-08T13:26:58;3.13;;;2.50;;
13335;SDS011;6737;51.480;11.962;2023-08-08T13:29:24;4.47;;;2.55;;
13335;SDS011;6737;51.480;11.962;2023-08-08T13:31:50;5.22;;;2.55;;
13335;SDS011;6737;51.480;11.962;2023-08-08T13:34:16;4.15;;;2.50;;
13335;SDS011;6737;51.480;11.962;2023-08-08T13:36:41;3.33;;;2.38;;
13335;SDS011;6737;51.480;11.962;2023-08-08T13:39:07;2.88;;;2.35;;
13335;SDS011;6737;51.480;11.962;2023-08-08T13:41:35;3.67;;;2.33;;
13335;SDS011;6737;51.480;11.962;2023-08-08T13:44:00;3.88;;;2.60;;
13335;SDS011;6737;51.480;11.962;2023-08-08T13:46:26;4.28;;;2.58;;
13335;SDS011;6737;51.480;11.962;2023-08-08T13:48:52;5.22;;;2.50;;
13335;SDS011;6737;51.480;11.962;2023-08-08T13:51:18;4.97;;;2.58;;
13335;SDS011;6737;51.480;11.962;2023-08-08T13:53:43;4.65;;;2.92;;
13335;SDS011;6737;51.480;11.962;2023-08-08T13:56:10;4.70;;;2.90;;
13335;SDS011;6737;51.480;11.962;2023-08-08T13:58:36;4.05;;;3.10;;
13335;SDS011;6737;51.480;11.962;2023-08-08T14:01:02;4.57;;;2.70;;
13335;SDS011;6737;51.480;11.962;2023-08-08T14:03:28;4.40;;;2.97;;
13335;SDS011;6737;51.480;11.962;2023-08-08T14:05:53;4.75;;;2.80;;
13335;SDS011;6737;51.480;11.962;2023-08-08T14:08:19;4.90;;;2.83;;
13335;SDS011;6737;51.480;11.962;2023-08-08T14:10:45;4.90;;;2.70;;
13335;SDS011;6737;51.480;11.962;2023-08-08T14:13:11;3.05;;;2.55;;
13335;SDS011;6737;51.480;11.962;2023-08-08T14:15:37;2.60;;;2.30;;
13335;SDS011;6737;51.480;11.962;2023-08-08T14:18:03;3.55;;;2.40;;
13335;SDS011;6737;51.480;11.962;2023-08-08T14:20:30;6.07;;;2.55;;
13335;SDS011;6737;51.480;11.962;2023-08-08T14:22:55;4.38;;;2.30;;
13335;SDS011;6737;51.480;11.962;2023-08-08T14:25:21;4.68;;;2.38;;
13335;SDS011;6737;51.480;11.962;2023-08-08T14:27:47;3.60;;;2.70;;
13335;SDS011;6737;51.480;11.962;2023-08-08T14:30:13;5.30;;;2.60;;
13335;SDS011;6737;51.480;11.962;2023-08-08T14:32:39;4.15;;;2.20;;
13335;SDS011;6737;51.480;11.962;2023-08-08T14:35:05;3.53;;;2.58;;
13335;SDS011;6737;51.480;11.962;2023-08-08T14:37:34;5.85;;;2.60;;
13335;SDS011;6737;51.480;11.962;2023-08-08T14:40:00;6.25;;;2.70;;
13335;SDS011;6737;51.480;11.962;2023-08-08T14:42:29;4.18;;;2.58;;
13335;SDS011;6737;51.480;11.962;2023-08-08T14:44:55;5.43;;;2.50;;
13335;SDS011;6737;51.480;11.962;2023-08-08T14:47:20;3.67;;;2.70;;